Time;durP1;ratioP1;P1;durP2;ratioP2;P2;SDS_P1;SDS_P2;PMS_P1;PMS_P2;Temp;Humidity;BMP_temperature;BMP_pressure;BME280_temperature;BME280_humidity;BME280_pressure;Samples;Min_cycle;Max_cycle;Signal;HPM_P1;HPM_P2
2022/04/14 00:05:43;;;;;;;62.37;57.73;;;;;;;11.17;100.00;102032.05;2011379;71;32905;-77
2022/04/14 00:11:27;;;;;;;61.27;56.80;;;;;;;10.94;100.00;102020.67;2008151;71;33331;-78
2022/04/14 00:17:13;;;;;;;61.27;56.97;;;;;;;10.74;100.00;102032.89;2009379;71;33406;-78
2022/04/14 00:22:57;;;;;;;60.63;56.13;;;;;;;10.82;100.00;102038.03;2009218;70;32882;-75
2022/04/14 00:28:42;;;;;;;59.17;54.67;;;;;;;10.58;100.00;102037.11;2016686;71;32868;-76
2022/04/14 00:34:26;;;;;;;60.13;55.43;;;;;;;10.54;100.00;102031.78;2000408;71;33361;-78
2022/04/14 00:40:13;;;;;;;60.07;55.67;;;;;;;10.70;100.00;102038.67;1991392;71;32887;-76
2022/04/14 00:45:57;;;;;;;60.23;55.73;;;;;;;10.60;100.00;102040.48;2014676;71;32804;-78
2022/04/14 00:51:42;;;;;;;59.50;54.70;;;;;;;10.31;100.00;102037.83;2007818;70;32804;-77
2022/04/14 00:57:27;;;;;;;60.30;55.63;;;;;;;10.19;100.00;102035.70;2018496;71;32943;-77
2022/04/14 01:03:11;;;;;;;63.77;58.77;;;;;;;10.37;100.00;102038.22;2004028;71;32741;-77
2022/04/14 01:14:59;;;;;;;56.33;52.33;;;;;;;9.67;100.00;102049.52;2013214;71;32816;-78
2022/04/14 01:20:45;;;;;;;60.83;56.43;;;;;;;9.70;100.00;102054.55;2000576;71;33181;-78
2022/04/14 01:26:31;;;;;;;56.97;52.67;;;;;;;9.70;100.00;102055.94;2016740;71;32850;-76
2022/04/14 01:32:19;;;;;;;59.47;55.37;;;;;;;9.64;100.00;102061.09;2002833;71;33264;-78
2022/04/14 01:38:06;;;;;;;60.40;56.03;;;;;;;9.59;100.00;102057.14;1991428;71;32749;-75
2022/04/14 01:43:51;;;;;;;61.50;57.23;;;;;;;9.55;100.00;102069.81;2000621;71;32750;-76
2022/04/14 01:49:35;;;;;;;58.90;54.40;;;;;;;9.52;100.00;102073.64;2006193;71;32808;-75
2022/04/14 01:55:22;;;;;;;57.63;53.63;;;;;;;9.21;100.00;102079.12;1994449;71;32782;-75
2022/04/14 02:01:05;;;;;;;55.97;51.87;;;;;;;8.89;100.00;102079.29;2006063;71;32776;-75
2022/04/14 02:06:50;;;;;;;53.43;49.43;;;;;;;8.63;100.00;102080.66;2013135;71;32858;-78
2022/04/14 02:12:35;;;;;;;56.80;52.67;;;;;;;8.88;100.00;102091.45;1996988;71;32863;-76
2022/04/14 02:18:25;;;;;;;56.67;52.50;;;;;;;8.93;100.00;102089.64;2014984;71;33369;-76
2022/04/14 02:24:09;;;;;;;53.53;49.63;;;;;;;8.93;100.00;102092.41;2009432;71;33305;-75
2022/04/14 02:29:54;;;;;;;55.77;51.87;;;;;;;9.06;100.00;102091.30;2005576;71;33367;-78
2022/04/14 02:35:41;;;;;;;55.60;51.57;;;;;;;8.70;100.00;102100.75;2006082;71;32763;-75
2022/04/14 02:41:25;;;;;;;54.63;50.70;;;;;;;8.75;100.00;102098.09;2000164;71;32885;-74
2022/04/14 02:47:10;;;;;;;61.77;57.10;;;;;;;8.88;100.00;102107.53;1991680;71;33275;-78
2022/04/14 02:52:55;;;;;;;61.57;57.30;;;;;;;8.94;100.00;102099.62;2013061;71;33357;-74
2022/04/14 02:58:39;;;;;;;61.37;56.90;;;;;;;8.95;100.00;102107.39;1998588;71;33299;-74
2022/04/14 03:04:24;;;;;;;59.47;55.03;;;;;;;9.26;100.00;102106.12;2011202;71;33004;-74
2022/04/14 03:10:12;;;;;;;58.47;53.50;;;;;;;9.51;100.00;102099.14;2016755;71;33267;-76
2022/04/14 03:15:57;;;;;;;58.27;53.57;;;;;;;9.59;100.00;102088.19;2009619;71;32874;-78
2022/04/14 03:21:42;;;;;;;58.53;53.93;;;;;;;9.65;100.00;102098.30;1998873;71;32845;-78
2022/04/14 03:27:26;;;;;;;59.50;54.80;;;;;;;9.68;100.00;102103.89;2016693;71;33270;-78
2022/04/14 03:33:10;;;;;;;59.63;55.33;;;;;;;8.93;100.00;102102.11;1991502;71;32941;-76
2022/04/14 03:38:54;;;;;;;59.73;55.33;;;;;;;8.86;100.00;102108.31;2011233;71;32872;-75
2022/04/14 03:44:39;;;;;;;57.27;52.97;;;;;;;8.86;100.00;102097.22;2018421;71;32808;-77
2022/04/14 03:50:24;;;;;;;58.17;53.93;;;;;;;8.82;100.00;102099.34;2016315;71;32808;-78
2022/04/14 03:56:08;;;;;;;59.30;55.00;;;;;;;8.69;100.00;102104.59;2008078;71;32734;-77
2022/04/14 04:01:52;;;;;;;61.10;56.37;;;;;;;8.66;100.00;102102.32;1944042;71;39690;-78
2022/04/14 04:07:38;;;;;;;54.80;50.60;;;;;;;8.94;100.00;102098.23;2005917;71;32877;-75
2022/04/14 04:13:23;;;;;;;58.17;53.73;;;;;;;8.61;100.00;102093.89;2002055;71;32803;-78
2022/04/14 04:19:07;;;;;;;54.93;51.03;;;;;;;8.32;100.00;102097.09;1994943;71;32810;-78
2022/04/14 04:24:52;;;;;;;51.93;48.13;;;;;;;7.72;100.00;102099.95;2018395;71;32812;-76
2022/04/14 04:30:40;;;;;;;55.00;51.10;;;;;;;8.08;100.00;102089.82;2015018;71;32881;-77
2022/04/14 04:36:24;;;;;;;55.67;51.33;;;;;;;8.31;100.00;102095.39;2002724;70;33220;-77
2022/04/14 04:42:09;;;;;;;58.03;53.53;;;;;;;8.63;100.00;102102.27;2002426;71;33334;-78
2022/04/14 04:47:55;;;;;;;57.33;52.60;;;;;;;9.00;100.00;102093.66;2005910;71;32742;-78
2022/04/14 04:53:39;;;;;;;58.37;53.47;;;;;;;8.91;100.00;102093.19;2009496;71;33448;-76
2022/04/14 04:59:22;;;;;;;53.73;49.67;;;;;;;8.87;100.00;102111.39;2007716;71;33360;-78
2022/04/14 05:05:08;;;;;;;57.13;52.93;;;;;;;7.97;100.00;102123.83;1999019;71;33234;-78
2022/04/14 05:10:52;;;;;;;54.03;50.03;;;;;;;8.07;100.00;102129.09;2009737;71;32821;-78
2022/04/14 05:16:39;;;;;;;57.90;53.57;;;;;;;8.17;100.00;102137.64;2003781;71;32909;-75
2022/04/14 05:22:23;;;;;;;55.87;51.47;;;;;;;8.28;100.00;102153.13;2003972;71;32857;-78
2022/04/14 05:28:08;;;;;;;58.70;54.10;;;;;;;8.81;100.00;102162.25;2016545;71;33327;-75
2022/04/14 05:33:55;;;;;;;61.17;56.23;;;;;;;8.77;100.00;102154.66;2005924;71;33317;-76
2022/04/14 05:39:39;;;;;;;58.00;52.83;;;;;;;8.88;100.00;102156.57;2005853;71;32876;-76
2022/04/14 05:45:24;;;;;;;53.73;49.53;;;;;;;9.08;100.00;102168.10;2002380;71;32886;-78
2022/04/14 05:51:10;;;;;;;55.83;51.50;;;;;;;8.45;100.00;102162.45;2009624;71;33267;-76
2022/04/14 05:56:55;;;;;;;54.50;50.07;;;;;;;8.18;100.00;102155.95;1979995;72;33000;-75
2022/04/14 06:02:39;;;;;;;53.70;49.30;;;;;;;8.14;100.00;102169.11;2009251;71;32815;-76
2022/04/14 06:08:25;;;;;;;52.70;48.70;;;;;;;8.09;100.00;102172.58;2014739;71;32909;-74
2022/04/14 06:14:09;;;;;;;53.13;49.10;;;;;;;8.15;100.00;102177.72;1996703;71;33410;-74
2022/04/14 06:19:55;;;;;;;55.37;51.00;;;;;;;8.58;100.00;102196.31;1994790;71;32820;-75
2022/04/14 06:25:45;;;;;;;54.30;49.60;;;;;;;8.78;100.00;102201.50;2015098;71;32807;-78
2022/04/14 06:31:28;;;;;;;55.57;50.57;;;;;;;9.21;100.00;102203.04;2013216;70;32816;-75
2022/04/14 06:37:12;;;;;;;54.57;49.77;;;;;;;9.84;100.00;102196.89;2009195;71;32874;-74
2022/04/14 06:42:56;;;;;;;54.93;50.43;;;;;;;9.88;100.00;102201.42;2005673;71;32767;-74
2022/04/14 06:48:41;;;;;;;55.63;50.87;;;;;;;9.72;100.00;102196.64;2003824;71;32981;-75
2022/04/14 06:54:27;;;;;;;57.90;52.83;;;;;;;9.67;100.00;102200.15;2018407;71;32816;-72
2022/04/14 07:00:14;;;;;;;59.63;54.50;;;;;;;9.97;100.00;102202.14;1998887;71;33203;-80
2022/04/14 07:06:05;;;;;;;60.80;55.50;;;;;;;10.47;100.00;102206.45;2007555;71;32813;-75
2022/04/14 07:11:49;;;;;;;61.40;56.57;;;;;;;10.80;100.00;102213.94;1994638;71;32802;-74
2022/04/14 07:17:34;;;;;;;62.63;57.77;;;;;;;10.94;100.00;102212.50;1998718;70;32882;-73
2022/04/14 07:23:19;;;;;;;60.13;55.30;;;;;;;11.02;100.00;102206.20;2004108;71;33215;-76
2022/04/14 07:29:03;;;;;;;60.10;55.03;;;;;;;11.23;100.00;102204.02;2007573;70;32814;-76
2022/04/14 07:34:48;;;;;;;61.30;56.30;;;;;;;11.48;100.00;102213.25;2013061;70;32793;-77
2022/04/14 07:40:32;;;;;;;63.27;58.10;;;;;;;11.43;100.00;102212.63;2012784;71;32917;-77
2022/04/14 07:46:16;;;;;;;65.77;60.47;;;;;;;11.71;100.00;102202.71;2015111;71;32798;-76
2022/04/14 07:52:08;;;;;;;67.70;62.43;;;;;;;12.10;100.00;102206.80;2015038;71;33273;-77
2022/04/14 07:57:54;;;;;;;64.53;59.63;;;;;;;12.21;100.00;102206.63;2006038;71;32863;-75
2022/04/14 08:03:39;;;;;;;63.73;58.90;;;;;;;12.19;100.00;102206.63;1994624;71;32822;-75
2022/04/14 08:09:23;;;;;;;64.77;59.77;;;;;;;12.12;100.00;102210.99;2005453;71;32915;-73
2022/04/14 08:15:12;;;;;;;63.00;58.07;;;;;;;12.50;100.00;102215.55;1996877;71;32931;-73
2022/04/14 08:20:59;;;;;;;67.67;62.67;;;;;;;12.82;100.00;102217.49;2009935;71;32864;-80
2022/04/14 08:26:45;;;;;;;62.53;57.57;;;;;;;12.86;100.00;102215.85;1994662;71;32852;-71
2022/04/14 08:32:29;;;;;;;65.27;60.33;;;;;;;12.92;100.00;102222.58;2011562;71;32883;-76
2022/04/14 08:38:13;;;;;;;67.43;62.23;;;;;;;13.27;100.00;102217.83;2004237;71;32789;-70
2022/04/14 08:44:02;;;;;;;69.03;64.17;;;;;;;13.33;100.00;102208.39;2000445;71;32797;-73
2022/04/14 08:49:49;;;;;;;63.57;58.77;;;;;;;13.93;100.00;102202.22;2011240;70;32885;-74
2022/04/14 08:55:35;;;;;;;64.07;59.47;;;;;;;13.98;100.00;102194.42;2007832;71;32738;-70
2022/04/14 09:01:20;;;;;;;64.50;60.00;;;;;;;14.29;100.00;102196.73;2005653;71;32731;-72
2022/04/14 09:07:06;;;;;;;65.97;61.37;;;;;;;14.44;100.00;102192.01;2003827;71;32931;-71
2022/04/14 09:12:51;;;;;;;70.60;65.70;;;;;;;14.51;100.00;102184.73;2003952;71;32823;-78
2022/04/14 09:18:36;;;;;;;66.23;61.77;;;;;;;14.74;100.00;102188.93;2008041;71;33238;-78
2022/04/14 09:24:24;;;;;;;65.43;61.23;;;;;;;14.86;100.00;102188.92;2002322;71;33245;-76
2022/04/14 09:30:12;;;;;;;65.60;60.23;;;;;;;15.29;100.00;102190.23;2013543;71;33293;-73
2022/04/14 09:36:14;;;;;;;67.23;62.93;;;;;;;15.54;100.00;102196.89;2011540;71;33337;-73
2022/04/14 09:42:14;;;;;;;66.03;61.87;;;;;;;15.77;100.00;102197.66;2018824;71;32825;-75
2022/04/14 09:48:04;;;;;;;61.93;58.13;;;;;;;15.79;100.00;102209.39;2017275;71;32974;-74
2022/04/14 09:53:49;;;;;;;60.20;56.30;;;;;;;15.99;100.00;102202.87;2008238;71;32813;-74
2022/04/14 09:59:34;;;;;;;63.60;59.60;;;;;;;15.94;100.00;102218.59;2015432;71;33422;-75
2022/04/14 10:05:36;;;;;;;65.23;61.13;;;;;;;15.85;100.00;102220.31;1995177;71;32798;-74
2022/04/14 10:11:27;;;;;;;61.90;58.30;;;;;;;16.09;100.00;102216.25;2003117;71;32894;-74
2022/04/14 10:17:25;;;;;;;60.80;57.27;;;;;;;16.05;100.00;102217.95;2015414;71;32822;-72
2022/04/14 10:23:12;;;;;;;59.63;55.77;;;;;;;16.73;100.00;102211.89;2016813;71;32814;-74
2022/04/14 10:28:58;;;;;;;53.03;50.03;;;;;;;16.68;100.00;102209.72;2013024;71;33222;-74
2022/04/14 10:34:45;;;;;;;53.57;50.47;;;;;;;16.61;100.00;102202.18;2000294;70;33372;-70
2022/04/14 10:40:34;;;;;;;49.27;46.57;;;;;;;17.38;100.00;102198.90;1994559;71;33323;-69
2022/04/14 10:46:32;;;;;;;45.70;43.30;;;;;;;17.14;100.00;102202.55;2010949;71;32877;-70
2022/04/14 10:52:28;;;;;;;47.63;45.13;;;;;;;17.17;100.00;102203.91;1996786;71;30849;-71
2022/04/14 10:58:48;;;;;;;43.53;41.27;;;;;;;17.55;100.00;102202.06;2011109;71;30960;-73
2022/04/14 11:04:35;;;;;;;35.13;33.30;;;;;;;17.10;100.00;102204.27;2014633;71;30934;-70
2022/04/14 11:10:27;;;;;;;30.07;28.50;;;;;;;17.32;100.00;102200.11;1999965;71;32871;-71
2022/04/14 11:16:47;;;;;;;26.87;25.53;;;;;;;17.35;100.00;102207.37;2000106;71;32805;-75
2022/04/14 11:23:04;;;;;;;28.00;26.50;;;;;;;17.44;100.00;102204.74;2014787;71;33439;-74
2022/04/14 11:29:01;;;;;;;26.57;25.10;;;;;;;17.40;100.00;102206.48;1995114;71;32791;-70
2022/04/14 11:34:45;;;;;;;25.20;24.00;;;;;;;17.62;100.00;102197.81;2011106;71;32812;-70
2022/04/14 11:40:57;;;;;;;24.77;23.40;;;;;;;17.61;100.00;102196.14;1991479;71;32798;-70
2022/04/14 11:46:44;;;;;;;22.37;21.27;;;;;;;17.51;100.00;102201.84;1994589;71;32836;-70
2022/04/14 11:52:29;;;;;;;19.60;18.60;;;;;;;17.50;100.00;102194.53;2004007;71;32881;-74
2022/04/14 11:58:15;;;;;;;17.43;16.53;;;;;;;17.69;100.00;102192.66;2002040;71;32845;-71
2022/04/14 12:04:00;;;;;;;15.73;14.90;;;;;;;17.96;100.00;102189.22;2006082;71;32844;-69
2022/04/14 12:09:45;;;;;;;14.63;13.93;;;;;;;17.99;100.00;102184.38;2018578;70;33516;-70
2022/04/14 12:15:30;;;;;;;14.47;13.77;;;;;;;18.09;100.00;102182.84;1996989;71;32867;-69
2022/04/14 12:21:22;;;;;;;14.13;13.30;;;;;;;17.63;100.00;102179.80;1995152;71;30951;-69
2022/04/14 12:27:10;;;;;;;12.90;12.30;;;;;;;17.83;100.00;102187.14;2012952;71;32884;-74
2022/04/14 12:33:03;;;;;;;14.13;13.33;;;;;;;18.01;100.00;102177.88;2014551;71;32949;-73
2022/04/14 12:38:48;;;;;;;20.20;18.43;;;;;;;18.22;100.00;102180.41;2013058;70;32874;-75
2022/04/14 12:44:33;;;;;;;12.43;11.73;;;;;;;18.65;100.00;102182.80;1994807;71;31469;-70
2022/04/14 12:50:19;;;;;;;16.03;14.83;;;;;;;18.35;100.00;102176.26;1994685;71;30932;-70
2022/04/14 12:56:14;;;;;;;17.80;16.37;;;;;;;18.69;100.00;102173.20;2011588;71;32825;-75
2022/04/14 13:02:24;;;;;;;12.97;12.37;;;;;;;18.39;100.00;102170.85;2014863;71;30894;-77
2022/04/14 13:08:33;;;;;;;25.23;15.43;;;;;;;18.35;100.00;102172.61;2011334;71;31405;-73
2022/04/14 13:14:19;;;;;;;12.30;11.60;;;;;;;18.79;100.00;102167.36;1991300;71;30976;-76
2022/04/14 13:20:10;;;;;;;12.67;11.67;;;;;;;18.46;100.00;102174.10;2004236;70;30827;-71
2022/04/14 13:25:56;;;;;;;12.33;11.63;;;;;;;18.44;100.00;102167.96;2008079;71;30965;-75
2022/04/14 13:31:42;;;;;;;11.53;10.87;;;;;;;18.49;100.00;102158.84;1991394;71;30861;-74
2022/04/14 13:37:26;;;;;;;10.83;10.23;;;;;;;18.38;100.00;102161.57;2006370;71;31429;-74
2022/04/14 13:43:12;;;;;;;11.50;10.97;;;;;;;18.10;100.00;102161.16;2013123;71;31468;-74
2022/04/14 13:48:56;;;;;;;10.83;10.17;;;;;;;18.38;100.00;102157.92;2014591;71;30887;-73
2022/04/14 13:54:40;;;;;;;11.10;10.60;;;;;;;18.30;100.00;102152.98;1991443;71;30915;-72
2022/04/14 14:00:26;;;;;;;11.00;10.50;;;;;;;17.96;100.00;102051.45;2009594;70;30890;-72
2022/04/14 14:06:10;;;;;;;10.97;10.43;;;;;;;18.76;100.00;102145.47;2013165;71;31069;-78
2022/04/14 14:11:54;;;;;;;11.60;11.00;;;;;;;18.66;100.00;102142.83;1995146;71;30987;-72
2022/04/14 14:17:39;;;;;;;10.57;10.13;;;;;;;18.77;100.00;102149.13;1996866;71;30806;-72
2022/04/14 14:23:25;;;;;;;11.13;10.53;;;;;;;18.74;100.00;102153.97;2009647;71;31026;-74
2022/04/14 14:29:12;;;;;;;10.40;9.90;;;;;;;18.82;100.00;102150.45;2015201;71;31022;-74
2022/04/14 14:34:57;;;;;;;10.77;10.27;;;;;;;18.80;100.00;102153.56;2013083;71;30929;-78
2022/04/14 14:40:42;;;;;;;10.37;9.77;;;;;;;18.92;100.00;102155.87;1995171;71;30966;-74
2022/04/14 14:46:26;;;;;;;10.40;9.90;;;;;;;18.65;100.00;102156.06;2013234;70;30992;-74
2022/04/14 14:52:10;;;;;;;11.60;10.90;;;;;;;18.57;100.00;102158.73;2015146;71;30925;-74
2022/04/14 15:04:00;;;;;;;11.30;10.77;;;;;;;18.41;100.00;102172.20;1994697;71;30942;-73
2022/04/14 15:09:45;;;;;;;11.90;11.20;;;;;;;18.51;100.00;102165.58;2000435;71;30890;-74
2022/04/14 15:15:30;;;;;;;10.63;10.00;;;;;;;18.71;100.00;102165.27;2002603;71;33334;-72
2022/04/14 15:21:16;;;;;;;11.20;10.60;;;;;;;18.82;100.00;102162.55;2014813;71;31371;-77
2022/04/14 15:27:00;;;;;;;10.63;10.20;;;;;;;18.83;100.00;102166.17;2016984;71;30959;-76
2022/04/14 15:32:45;;;;;;;12.03;11.17;;;;;;;18.92;100.00;102169.37;2016470;71;30948;-71
2022/04/14 15:38:34;;;;;;;11.50;10.80;;;;;;;18.84;100.00;102167.84;2007708;71;33262;-71
2022/04/14 15:44:19;;;;;;;11.60;11.10;;;;;;;18.79;100.00;102172.16;2006623;71;30982;-77
2022/04/14 15:50:03;;;;;;;11.40;10.80;;;;;;;18.84;100.00;102174.89;2005789;71;30887;-74
2022/04/14 15:55:48;;;;;;;11.50;10.80;;;;;;;18.88;100.00;102171.72;2007879;71;30889;-75
2022/04/14 16:01:33;;;;;;;11.20;10.50;;;;;;;18.90;100.00;102173.67;1991367;71;30870;-70
2022/04/14 16:07:19;;;;;;;11.50;10.90;;;;;;;18.72;100.00;102174.55;2007799;71;30839;-77
2022/04/14 16:13:05;;;;;;;11.60;11.00;;;;;;;18.56;100.00;102176.23;2006197;71;31314;-73
2022/04/14 16:18:49;;;;;;;11.77;11.10;;;;;;;18.74;100.00;102182.13;1998371;71;30872;-73
2022/04/14 16:24:34;;;;;;;12.20;11.50;;;;;;;18.78;100.00;102184.02;2009201;71;31411;-72
2022/04/14 16:30:24;;;;;;;12.43;11.80;;;;;;;18.67;100.00;102193.77;2014732;71;30956;-78
2022/04/14 16:36:09;;;;;;;12.97;12.30;;;;;;;18.50;100.00;102191.48;2018961;71;33335;-78
2022/04/14 16:41:54;;;;;;;12.17;11.47;;;;;;;18.50;100.00;102192.88;2010552;71;30953;-70
2022/04/14 16:47:38;;;;;;;11.57;10.87;;;;;;;18.47;100.00;102191.26;2010211;71;31025;-76
2022/04/14 16:53:24;;;;;;;10.20;9.57;;;;;;;18.36;100.00;102196.77;1994207;71;30867;-75
2022/04/14 16:59:22;;;;;;;11.27;10.57;;;;;;;18.44;100.00;102203.94;2007251;70;31394;-76
2022/04/14 17:19:16;;;;;;;12.20;11.37;;;;;;;18.37;100.00;102203.50;1916010;73;86077;-75
2022/04/14 17:24:59;;;;;;;13.80;12.70;;;;;;;19.23;100.00;102202.62;1908347;74;85159;-75
2022/04/14 17:30:44;;;;;;;13.47;12.37;;;;;;;19.39;100.00;102206.80;1882404;74;85982;-75
2022/04/14 17:36:29;;;;;;;12.20;11.40;;;;;;;18.69;100.00;102206.13;1806601;76;86298;-75
2022/04/14 17:42:14;;;;;;;11.90;11.27;;;;;;;18.08;100.00;102210.69;1938105;72;86168;-70
2022/04/14 17:48:07;;;;;;;11.97;11.27;;;;;;;17.98;100.00;102218.41;1797467;78;85734;-72
2022/04/14 17:53:43;;;;;;;11.90;11.20;;;;;;;17.95;100.00;102217.05;1800165;78;88256;-71
2022/04/14 17:59:27;;;;;;;10.90;10.40;;;;;;;17.82;100.00;102218.36;1805858;77;86131;-71
2022/04/14 18:05:13;;;;;;;11.20;10.60;;;;;;;17.71;100.00;102227.50;1923617;71;39784;-80
2022/04/14 18:10:59;;;;;;;10.53;10.03;;;;;;;17.64;100.00;102234.03;1795356;78;86050;-75
2022/04/14 18:16:43;;;;;;;10.57;10.10;;;;;;;17.61;100.00;102239.69;1798578;78;86379;-74
2022/04/14 18:22:29;;;;;;;11.33;10.70;;;;;;;17.61;100.00;102239.69;1797988;77;86501;-70
2022/04/14 18:28:14;;;;;;;12.17;11.47;;;;;;;17.44;100.00;102247.72;1908552;72;86098;-71
2022/04/14 18:34:01;;;;;;;11.20;10.50;;;;;;;17.31;100.00;102256.84;1974026;71;39677;-76
2022/04/14 18:39:45;;;;;;;10.83;10.33;;;;;;;17.19;100.00;102257.81;1881466;74;86739;-75
2022/04/14 18:45:30;;;;;;;10.47;9.93;;;;;;;17.14;100.00;102260.67;1871246;76;86325;-77
2022/04/14 18:51:15;;;;;;;11.10;10.60;;;;;;;16.97;100.00;102265.31;1917264;74;86685;-75
2022/04/14 18:57:01;;;;;;;11.70;11.17;;;;;;;16.58;100.00;102277.12;1839880;76;86199;-74
2022/04/14 19:02:45;;;;;;;11.90;11.30;;;;;;;16.21;100.00;102281.81;1888760;74;85333;-76
2022/04/14 19:08:29;;;;;;;11.97;11.37;;;;;;;16.39;100.00;102284.77;1857382;74;86229;-76
2022/04/14 19:14:14;;;;;;;13.03;12.37;;;;;;;15.62;100.00;102293.78;1907141;72;85846;-71
2022/04/14 19:19:59;;;;;;;13.70;12.83;;;;;;;15.53;100.00;102311.48;1803907;78;86291;-72
2022/04/14 19:25:45;;;;;;;13.83;13.03;;;;;;;15.47;100.00;102314.80;1802329;78;86543;-75
2022/04/14 19:31:30;;;;;;;14.43;13.73;;;;;;;15.23;100.00;102327.13;1896310;74;86174;-76
2022/04/14 19:37:14;;;;;;;15.90;15.20;;;;;;;15.09;100.00;102332.19;1933144;73;85474;-75
2022/04/14 19:42:59;;;;;;;16.97;16.07;;;;;;;14.95;100.00;102334.70;1908109;74;86774;-74
2022/04/14 19:48:43;;;;;;;16.20;15.50;;;;;;;14.96;100.00;102342.83;1801804;78;86724;-75
2022/04/14 19:54:27;;;;;;;23.73;22.53;;;;;;;14.85;100.00;102343.91;1908101;74;86392;-73
2022/04/14 20:00:14;;;;;;;28.57;27.07;;;;;;;14.41;100.00;102350.54;1981429;71;40028;-69
2022/04/14 20:05:58;;;;;;;32.80;31.00;;;;;;;14.36;100.00;102356.66;1812283;78;86690;-72
2022/04/14 20:11:42;;;;;;;35.40;33.50;;;;;;;14.21;100.00;102365.78;1797701;78;86467;-71
2022/04/14 20:17:27;;;;;;;38.27;36.27;;;;;;;14.02;100.00;102361.79;1868726;74;86888;-71
2022/04/14 20:23:12;;;;;;;40.93;37.97;;;;;;;13.97;100.00;102368.19;1981934;70;39610;-79
2022/04/14 20:28:57;;;;;;;40.07;37.37;;;;;;;13.99;100.00;102363.73;1834662;76;85962;-71
2022/04/14 20:34:42;;;;;;;37.37;35.07;;;;;;;13.99;100.00;102364.55;1806979;78;86083;-72
2022/04/14 20:40:26;;;;;;;40.97;38.57;;;;;;;14.08;100.00;102367.12;1861806;75;86339;-74
2022/04/14 20:46:11;;;;;;;42.30;39.80;;;;;;;13.83;100.00;102373.97;1980546;71;39723;-71
2022/04/14 20:51:57;;;;;;;41.93;39.37;;;;;;;13.89;100.00;102372.89;1815879;75;86305;-76
2022/04/14 20:57:44;;;;;;;45.50;42.90;;;;;;;13.78;100.00;102378.12;1808802;78;86148;-70
2022/04/14 21:00:17;;;;;;;45.47;42.67;;;;;;;13.67;100.00;102384.20;1768028;78;939046;-77
2022/04/14 21:06:02;;;;;;;41.70;39.30;;;;;;;13.85;100.00;102374.55;1925148;71;39400;-71
2022/04/14 21:11:46;;;;;;;51.10;48.20;;;;;;;13.86;100.00;102372.60;1897428;75;86694;-72
2022/04/14 21:17:31;;;;;;;56.17;52.77;;;;;;;13.57;100.00;102373.50;1882547;75;86372;-70
2022/04/14 21:23:15;;;;;;;60.20;56.50;;;;;;;13.37;100.00;102377.55;1910695;73;85970;-71
2022/04/14 21:29:00;;;;;;;60.83;57.23;;;;;;;13.25;100.00;102392.23;1976783;71;39595;-70
2022/04/14 21:34:45;;;;;;;61.23;57.53;;;;;;;13.06;100.00;102394.53;1880173;75;86180;-70
2022/04/14 21:43:35;;;;;;;62.43;58.53;;;;;;;12.68;100.00;102407.53;1897995;74;86155;-72
2022/04/14 21:46:06;;;;;;;64.37;60.37;;;;;;;12.60;100.00;102412.18;1822640;76;937469;-73
2022/04/14 21:48:36;;;;;;;61.97;57.97;;;;;;;12.45;100.00;102413.37;1854720;75;939163;-72
2022/04/14 21:57:28;;;;;;;62.67;58.77;;;;;;;12.10;100.00;102405.96;1964716;71;86047;-69
2022/04/14 22:03:14;;;;;;;62.90;58.90;;;;;;;12.03;100.00;102404.73;1867878;75;86663;-74
2022/04/14 22:08:58;;;;;;;60.63;56.67;;;;;;;12.15;100.00;102408.83;1801799;78;85994;-74
2022/04/14 22:14:43;;;;;;;62.20;58.07;;;;;;;12.05;100.00;102417.88;1809017;78;86102;-78
2022/04/14 22:20:32;;;;;;;62.43;58.37;;;;;;;12.10;100.00;102415.72;1870776;76;86068;-71
2022/04/14 22:26:16;;;;;;;63.47;59.37;;;;;;;12.13;100.00;102418.81;1941842;73;86279;-74
2022/04/14 22:32:01;;;;;;;64.17;60.07;;;;;;;12.09;100.00;102420.98;1979296;71;39774;-73
2022/04/14 22:37:46;;;;;;;63.33;59.23;;;;;;;12.09;100.00;102425.16;1880611;74;86716;-71
2022/04/14 22:43:30;;;;;;;66.10;62.10;;;;;;;12.11;100.00;102436.87;1843261;77;86248;-71
2022/04/14 22:49:14;;;;;;;64.47;60.37;;;;;;;12.04;100.00;102433.44;1912985;74;86595;-72
2022/04/14 22:54:58;;;;;;;63.43;59.30;;;;;;;12.15;100.00;102436.68;1807295;78;86278;-74
2022/04/14 23:00:41;;;;;;;65.20;60.97;;;;;;;12.14;100.00;102443.34;1808000;78;85435;-74
2022/04/14 23:06:26;;;;;;;63.20;59.00;;;;;;;11.90;100.00;102448.27;1797971;77;86062;-75
2022/04/14 23:12:12;;;;;;;64.93;60.73;;;;;;;11.98;100.00;102447.02;1949511;71;39553;-71
2022/04/14 23:17:58;;;;;;;64.00;59.50;;;;;;;11.83;100.00;102441.50;1801260;78;86509;-74
2022/04/14 23:23:42;;;;;;;62.43;58.23;;;;;;;11.58;100.00;102441.06;1808791;78;86543;-71
2022/04/14 23:29:26;;;;;;;64.87;60.47;;;;;;;11.21;100.00;102446.25;1905553;74;85566;-71
2022/04/14 23:35:11;;;;;;;61.33;57.13;;;;;;;11.00;100.00;102443.34;1972358;71;39532;-71
2022/04/14 23:41:10;;;;;;;64.63;60.10;;;;;;;10.87;100.00;102450.05;1843994;76;86307;-70
2022/04/14 23:46:40;;;;;;;64.17;59.87;;;;;;;10.97;100.00;102450.25;1873431;75;86133;-71
2022/04/14 23:52:25;;;;;;;66.40;62.10;;;;;;;11.01;100.00;102454.22;1798032;77;86126;-74
2022/04/14 23:58:08;;;;;;;63.17;58.87;;;;;;;11.07;100.00;102453.23;1979494;71;40477;-74
